Spring Hill, California
Current Conditions -  °F | °C
As of 8:40 AM on Thursday 30 Oct 2014 (Local Time) from KGOO Reporting Station
Clear Clear  
Wind Chill: 63°   Ceiling: Unl
Heat Index: 63°   Visibility: 10mi
Dew Point: 32°   Wind: 5mph
Humidity: 32%   Direction: 120°ESE
Pressure: 30.05"   Gusts: NA
Location:  39.2183°N, 120.924°W
Report Text: KGOO 301540Z AUTO 12004KT 10SM CLR 17/00 A3005 RMK AO1
Loading
Personal Weather Stations






























Interactive Weather Map
Tropical Storm Tracking
New forecast layout! Learn more

10-Day Weather Forecast

Advertisements
Track Severe Weather on mobile